Noyes, Pennsylvania
Current Conditions -  °F | °C
As of 4:35 PM on Friday 24 Oct 2014 (Local Time) from KN38 Reporting Station
Clear Clear  
Wind Chill: 59°   Ceiling: Unl
Heat Index: 59°   Visibility: 10mi
Dew Point: 28°   Wind: 8mph
Humidity: 31%   Direction: 310°NW
Pressure: 29.92"   Gusts: 15mph
Location:  41.3916°N, 77.7796°W
Report Text: KN38 242035Z AUTO 31007G13KT 270V330 10SM CLR 15/M02 A2992 RMK AO2
Loading
Personal Weather Stations






























Interactive Weather Map
Tropical Storm Tracking
New forecast layout! Learn more

10-Day Weather Forecast

Advertisements
Track Severe Weather on mobile